sensor_id;sensor_type;location;lat;lon;timestamp;temperature;humidity
21508;DHT22;10915;54.352;9.074;2023-06-10T00:02:11;11.70;99.90
21508;DHT22;10915;54.352;9.074;2023-06-10T00:04:37;11.70;99.90
21508;DHT22;10915;54.352;9.074;2023-06-10T00:07:03;11.70;99.90
21508;DHT22;10915;54.352;9.074;2023-06-10T00:09:29;11.60;99.90
21508;DHT22;10915;54.352;9.074;2023-06-10T00:11:55;11.70;99.90
21508;DHT22;10915;54.352;9.074;2023-06-10T00:14:20;11.60;99.90
21508;DHT22;10915;54.352;9.074;2023-06-10T00:16:46;11.50;99.90
21508;DHT22;10915;54.352;9.074;2023-06-10T00:19:12;11.60;99.90
21508;DHT22;10915;54.352;9.074;2023-06-10T00:21:39;11.50;99.90
21508;DHT22;10915;54.352;9.074;2023-06-10T00:24:06;11.50;99.90
21508;DHT22;10915;54.352;9.074;2023-06-10T00:26:32;11.60;99.90
21508;DHT22;10915;54.352;9.074;2023-06-10T00:28:59;11.60;99.90
21508;DHT22;10915;54.352;9.074;2023-06-10T00:31:25;11.60;99.90
21508;DHT22;10915;54.352;9.074;2023-06-10T00:33:52;11.60;99.90
21508;DHT22;10915;54.352;9.074;2023-06-10T00:36:17;11.60;99.90
21508;DHT22;10915;54.352;9.074;2023-06-10T00:38:43;11.70;99.90
21508;DHT22;10915;54.352;9.074;2023-06-10T00:41:08;11.60;99.90
21508;DHT22;10915;54.352;9.074;2023-06-10T00:43:35;11.70;99.90
21508;DHT22;10915;54.352;9.074;2023-06-10T00:46:00;11.70;99.90
21508;DHT22;10915;54.352;9.074;2023-06-10T00:48:27;11.70;99.90
21508;DHT22;10915;54.352;9.074;2023-06-10T00:50:53;11.60;99.90
21508;DHT22;10915;54.352;9.074;2023-06-10T00:53:19;11.60;99.90
21508;DHT22;10915;54.352;9.074;2023-06-10T00:55:46;11.60;99.90
21508;DHT22;10915;54.352;9.074;2023-06-10T00:58:12;11.60;99.90
21508;DHT22;10915;54.352;9.074;2023-06-10T01:00:38;11.50;99.90
21508;DHT22;10915;54.352;9.074;2023-06-10T01:03:04;11.50;99.90
21508;DHT22;10915;54.352;9.074;2023-06-10T01:05:34;11.50;99.90
21508;DHT22;10915;54.352;9.074;2023-06-10T01:13:16;11.50;99.90
21508;DHT22;10915;54.352;9.074;2023-06-10T01:15:43;11.50;99.90
21508;DHT22;10915;54.352;9.074;2023-06-10T01:18:10;11.50;99.90
21508;DHT22;10915;54.352;9.074;2023-06-10T01:20:41;11.50;99.90
21508;DHT22;10915;54.352;9.074;2023-06-10T01:23:09;11.50;99.90
21508;DHT22;10915;54.352;9.074;2023-06-10T01:25:38;11.50;99.90
21508;DHT22;10915;54.352;9.074;2023-06-10T01:28:13;11.50;99.90
21508;DHT22;10915;54.352;9.074;2023-06-10T01:33:31;11.50;99.90
21508;DHT22;10915;54.352;9.074;2023-06-10T01:35:59;11.50;99.90
21508;DHT22;10915;54.352;9.074;2023-06-10T01:38:27;11.50;99.90
21508;DHT22;10915;54.352;9.074;2023-06-10T01:40:55;11.50;99.90
21508;DHT22;10915;54.352;9.074;2023-06-10T01:43:22;11.40;99.90
21508;DHT22;10915;54.352;9.074;2023-06-10T01:45:47;11.40;99.90
21508;DHT22;10915;54.352;9.074;2023-06-10T01:48:13;11.40;99.90
21508;DHT22;10915;54.352;9.074;2023-06-10T01:50:39;11.30;99.90
21508;DHT22;10915;54.352;9.074;2023-06-10T01:53:05;11.30;99.90
21508;DHT22;10915;54.352;9.074;2023-06-10T01:55:31;11.30;99.90
21508;DHT22;10915;54.352;9.074;2023-06-10T01:57:56;11.30;99.90
21508;DHT22;10915;54.352;9.074;2023-06-10T02:00:22;11.30;99.90
21508;DHT22;10915;54.352;9.074;2023-06-10T02:02:48;11.30;99.90
21508;DHT22;10915;54.352;9.074;2023-06-10T02:05:13;11.20;99.90
21508;DHT22;10915;54.352;9.074;2023-06-10T02:07:39;11.20;99.90
21508;DHT22;10915;54.352;9.074;2023-06-10T02:10:05;11.20;99.90
21508;DHT22;10915;54.352;9.074;2023-06-10T02:12:31;11.20;99.90
21508;DHT22;10915;54.352;9.074;2023-06-10T02:14:57;11.20;99.90
21508;DHT22;10915;54.352;9.074;2023-06-10T02:17:22;11.20;99.90
21508;DHT22;10915;54.352;9.074;2023-06-10T02:19:48;11.20;99.90
21508;DHT22;10915;54.352;9.074;2023-06-10T02:22:23;11.20;99.90
21508;DHT22;10915;54.352;9.074;2023-06-10T02:24:49;11.20;99.90
21508;DHT22;10915;54.352;9.074;2023-06-10T02:27:15;11.20;99.90
21508;DHT22;10915;54.352;9.074;2023-06-10T02:29:41;11.20;99.90
21508;DHT22;10915;54.352;9.074;2023-06-10T02:32:08;11.10;99.90
21508;DHT22;10915;54.352;9.074;2023-06-10T02:34:33;11.10;99.90
21508;DHT22;10915;54.352;9.074;2023-06-10T02:37:00;11.20;99.90
21508;DHT22;10915;54.352;9.074;2023-06-10T02:39:27;11.20;99.90
21508;DHT22;10915;54.352;9.074;2023-06-10T02:41:52;11.10;99.90
21508;DHT22;10915;54.352;9.074;2023-06-10T02:44:18;11.10;99.90
21508;DHT22;10915;54.352;9.074;2023-06-10T02:46:44;11.20;99.90
21508;DHT22;10915;54.352;9.074;2023-06-10T02:49:11;11.20;99.90
21508;DHT22;10915;54.352;9.074;2023-06-10T02:51:37;11.20;99.90
21508;DHT22;10915;54.352;9.074;2023-06-10T02:54:03;11.10;99.90
21508;DHT22;10915;54.352;9.074;2023-06-10T02:56:30;11.20;99.90
21508;DHT22;10915;54.352;9.074;2023-06-10T02:58:57;11.20;99.90
21508;DHT22;10915;54.352;9.074;2023-06-10T03:01:23;11.20;99.90
21508;DHT22;10915;54.352;9.074;2023-06-10T03:03:49;11.20;99.90
21508;DHT22;10915;54.352;9.074;2023-06-10T03:06:16;11.10;99.90
21508;DHT22;10915;54.352;9.074;2023-06-10T03:08:42;11.10;99.90
21508;DHT22;10915;54.352;9.074;2023-06-10T03:11:08;11.10;99.90
21508;DHT22;10915;54.352;9.074;2023-06-10T03:13:33;11.10;99.90
21508;DHT22;10915;54.352;9.074;2023-06-10T03:15:59;11.10;99.90
21508;DHT22;10915;54.352;9.074;2023-06-10T03:18:28;11.10;99.90
21508;DHT22;10915;54.352;9.074;2023-06-10T03:20:54;11.00;99.90
21508;DHT22;10915;54.352;9.074;2023-06-10T03:23:20;11.00;99.90
21508;DHT22;10915;54.352;9.074;2023-06-10T03:25:46;11.00;99.90
21508;DHT22;10915;54.352;9.074;2023-06-10T03:28:11;11.00;99.90
21508;DHT22;10915;54.352;9.074;2023-06-10T03:30:37;11.00;99.90
21508;DHT22;10915;54.352;9.074;2023-06-10T03:33:03;11.00;99.90
21508;DHT22;10915;54.352;9.074;2023-06-10T03:35:29;11.10;99.90
21508;DHT22;10915;54.352;9.074;2023-06-10T03:37:55;11.10;99.90
21508;DHT22;10915;54.352;9.074;2023-06-10T03:40:20;11.10;99.90
21508;DHT22;10915;54.352;9.074;2023-06-10T03:42:46;11.10;99.90
21508;DHT22;10915;54.352;9.074;2023-06-10T03:45:11;11.10;99.90
21508;DHT22;10915;54.352;9.074;2023-06-10T03:47:38;11.10;99.90
21508;DHT22;10915;54.352;9.074;2023-06-10T03:50:06;11.20;99.90
21508;DHT22;10915;54.352;9.074;2023-06-10T03:52:33;11.30;99.90
21508;DHT22;10915;54.352;9.074;2023-06-10T03:54:59;11.30;99.90
21508;DHT22;10915;54.352;9.074;2023-06-10T03:57:25;11.40;99.90
21508;DHT22;10915;54.352;9.074;2023-06-10T03:59:51;11.50;99.90
21508;DHT22;10915;54.352;9.074;2023-06-10T04:02:16;11.50;99.90
21508;DHT22;10915;54.352;9.074;2023-06-10T04:04:42;11.60;99.90
21508;DHT22;10915;54.352;9.074;2023-06-10T04:07:08;11.60;99.90
21508;DHT22;10915;54.352;9.074;2023-06-10T04:09:34;11.70;99.90
21508;DHT22;10915;54.352;9.074;2023-06-10T04:12:01;11.70;99.90
21508;DHT22;10915;54.352;9.074;2023-06-10T04:14:27;11.80;99.90
21508;DHT22;10915;54.352;9.074;2023-06-10T04:16:53;11.90;99.90
21508;DHT22;10915;54.352;9.074;2023-06-10T04:19:18;11.90;99.90
21508;DHT22;10915;54.352;9.074;2023-06-10T04:21:45;12.00;99.90
21508;DHT22;10915;54.352;9.074;2023-06-10T04:24:11;12.00;99.90
21508;DHT22;10915;54.352;9.074;2023-06-10T04:26:41;12.10;99.90
21508;DHT22;10915;54.352;9.074;2023-06-10T04:31:52;12.30;99.90
21508;DHT22;10915;54.352;9.074;2023-06-10T04:34:36;12.30;99.90
21508;DHT22;10915;54.352;9.074;2023-06-10T04:37:35;12.40;99.90
21508;DHT22;10915;54.352;9.074;2023-06-10T04:40:39;12.50;99.90
21508;DHT22;10915;54.352;9.074;2023-06-10T04:43:09;12.60;99.90
21508;DHT22;10915;54.352;9.074;2023-06-10T04:45:51;12.70;99.90
21508;DHT22;10915;54.352;9.074;2023-06-10T04:52:00;12.80;99.90
21508;DHT22;10915;54.352;9.074;2023-06-10T04:57:59;13.00;99.90
21508;DHT22;10915;54.352;9.074;2023-06-10T05:00:39;13.10;99.90
21508;DHT22;10915;54.352;9.074;2023-06-10T05:03:07;13.20;99.90
21508;DHT22;10915;54.352;9.074;2023-06-10T05:05:36;13.30;99.90
21508;DHT22;10915;54.352;9.074;2023-06-10T05:08:02;13.50;99.90
21508;DHT22;10915;54.352;9.074;2023-06-10T05:10:30;13.60;99.90
21508;DHT22;10915;54.352;9.074;2023-06-10T05:13:02;13.80;99.90
21508;DHT22;10915;54.352;9.074;2023-06-10T05:15:47;13.90;99.90
21508;DHT22;10915;54.352;9.074;2023-06-10T05:18:13;14.10;99.90
21508;DHT22;10915;54.352;9.074;2023-06-10T05:20:42;14.20;99.90
21508;DHT22;10915;54.352;9.074;2023-06-10T05:23:26;14.40;99.90
21508;DHT22;10915;54.352;9.074;2023-06-10T05:25:55;14.40;99.90
21508;DHT22;10915;54.352;9.074;2023-06-10T05:28:45;14.50;99.90
21508;DHT22;10915;54.352;9.074;2023-06-10T05:31:29;14.50;99.90
21508;DHT22;10915;54.352;9.074;2023-06-10T05:33:58;14.50;99.90
21508;DHT22;10915;54.352;9.074;2023-06-10T05:39:53;14.60;99.90
21508;DHT22;10915;54.352;9.074;2023-06-10T05:42:27;14.60;99.90
21508;DHT22;10915;54.352;9.074;2023-06-10T05:44:59;14.70;99.90
21508;DHT22;10915;54.352;9.074;2023-06-10T05:47:30;14.70;99.90
21508;DHT22;10915;54.352;9.074;2023-06-10T05:50:17;14.80;99.90
21508;DHT22;10915;54.352;9.074;2023-06-10T05:52:48;14.90;99.90
21508;DHT22;10915;54.352;9.074;2023-06-10T05:55:23;15.00;99.90
21508;DHT22;10915;54.352;9.074;2023-06-10T05:57:59;15.00;99.90
21508;DHT22;10915;54.352;9.074;2023-06-10T06:00:25;15.10;99.90
21508;DHT22;10915;54.352;9.074;2023-06-10T06:02:51;15.10;99.90
21508;DHT22;10915;54.352;9.074;2023-06-10T06:05:24;15.20;99.90
21508;DHT22;10915;54.352;9.074;2023-06-10T06:07:52;15.30;99.90
21508;DHT22;10915;54.352;9.074;2023-06-10T06:10:20;15.40;99.90
21508;DHT22;10915;54.352;9.074;2023-06-10T06:12:49;15.50;99.90
21508;DHT22;10915;54.352;9.074;2023-06-10T06:15:17;15.50;99.90
21508;DHT22;10915;54.352;9.074;2023-06-10T06:17:59;15.50;99.90
21508;DHT22;10915;54.352;9.074;2023-06-10T06:20:30;15.60;99.90
21508;DHT22;10915;54.352;9.074;2023-06-10T06:22:58;15.70;99.90
21508;DHT22;10915;54.352;9.074;2023-06-10T06:25:24;15.70;99.90
21508;DHT22;10915;54.352;9.074;2023-06-10T06:27:50;15.80;99.90
21508;DHT22;10915;54.352;9.074;2023-06-10T06:30:16;15.80;99.90
21508;DHT22;10915;54.352;9.074;2023-06-10T06:32:42;15.90;99.90
21508;DHT22;10915;54.352;9.074;2023-06-10T06:35:08;16.00;99.90
21508;DHT22;10915;54.352;9.074;2023-06-10T06:37:34;16.00;99.90
21508;DHT22;10915;54.352;9.074;2023-06-10T06:40:00;16.10;99.90
21508;DHT22;10915;54.352;9.074;2023-06-10T06:42:29;16.10;99.90
21508;DHT22;10915;54.352;9.074;2023-06-10T06:44:55;16.10;99.90
21508;DHT22;10915;54.352;9.074;2023-06-10T06:47:20;16.10;99.90
21508;DHT22;10915;54.352;9.074;2023-06-10T06:49:47;16.20;99.90
21508;DHT22;10915;54.352;9.074;2023-06-10T06:52:13;16.20;99.90
21508;DHT22;10915;54.352;9.074;2023-06-10T06:54:39;16.20;99.90
21508;DHT22;10915;54.352;9.074;2023-06-10T06:57:05;16.30;99.90
21508;DHT22;10915;54.352;9.074;2023-06-10T06:59:31;16.40;99.90
21508;DHT22;10915;54.352;9.074;2023-06-10T07:01:56;16.50;99.90
21508;DHT22;10915;54.352;9.074;2023-06-10T07:04:22;16.50;99.90
21508;DHT22;10915;54.352;9.074;2023-06-10T07:06:48;16.60;99.90
21508;DHT22;10915;54.352;9.074;2023-06-10T07:09:14;16.60;99.90
21508;DHT22;10915;54.352;9.074;2023-06-10T07:11:40;16.60;99.90
21508;DHT22;10915;54.352;9.074;2023-06-10T07:14:06;16.60;99.90
21508;DHT22;10915;54.352;9.074;2023-06-10T07:16:32;16.80;99.90
21508;DHT22;10915;54.352;9.074;2023-06-10T07:18:58;16.80;99.90
21508;DHT22;10915;54.352;9.074;2023-06-10T07:21:24;16.80;99.90
21508;DHT22;10915;54.352;9.074;2023-06-10T07:23:49;16.80;99.90
21508;DHT22;10915;54.352;9.074;2023-06-10T07:26:19;16.90;99.90
21508;DHT22;10915;54.352;9.074;2023-06-10T07:28:44;16.90;99.90
21508;DHT22;10915;54.352;9.074;2023-06-10T07:31:10;17.00;99.90
21508;DHT22;10915;54.352;9.074;2023-06-10T07:33:40;17.10;99.90
21508;DHT22;10915;54.352;9.074;2023-06-10T07:36:06;17.20;99.90
21508;DHT22;10915;54.352;9.074;2023-06-10T07:38:32;17.20;99.90
21508;DHT22;10915;54.352;9.074;2023-06-10T07:40:57;17.30;99.90
21508;DHT22;10915;54.352;9.074;2023-06-10T07:43:24;17.40;99.90
21508;DHT22;10915;54.352;9.074;2023-06-10T07:45:49;17.50;99.90
21508;DHT22;10915;54.352;9.074;2023-06-10T07:48:15;17.50;99.90
21508;DHT22;10915;54.352;9.074;2023-06-10T07:50:41;17.70;99.90
21508;DHT22;10915;54.352;9.074;2023-06-10T07:53:06;17.70;99.90
21508;DHT22;10915;54.352;9.074;2023-06-10T07:55:32;17.70;99.90
21508;DHT22;10915;54.352;9.074;2023-06-10T07:57:58;17.80;99.90
21508;DHT22;10915;54.352;9.074;2023-06-10T08:00:23;18.00;99.90
21508;DHT22;10915;54.352;9.074;2023-06-10T08:02:49;18.20;99.90
21508;DHT22;10915;54.352;9.074;2023-06-10T08:05:16;18.30;99.90
21508;DHT22;10915;54.352;9.074;2023-06-10T08:07:42;18.40;99.90
21508;DHT22;10915;54.352;9.074;2023-06-10T08:10:08;18.50;99.90
21508;DHT22;10915;54.352;9.074;2023-06-10T08:12:35;18.60;99.90
21508;DHT22;10915;54.352;9.074;2023-06-10T08:15:02;18.70;99.90
21508;DHT22;10915;54.352;9.074;2023-06-10T08:17:30;18.90;99.90
21508;DHT22;10915;54.352;9.074;2023-06-10T08:19:56;19.10;99.90
21508;DHT22;10915;54.352;9.074;2023-06-10T08:22:21;19.10;99.90
21508;DHT22;10915;54.352;9.074;2023-06-10T08:24:47;19.20;99.90
21508;DHT22;10915;54.352;9.074;2023-06-10T08:27:13;19.40;99.90
21508;DHT22;10915;54.352;9.074;2023-06-10T08:29:41;19.10;99.90
21508;DHT22;10915;54.352;9.074;2023-06-10T08:32:07;19.10;99.90
21508;DHT22;10915;54.352;9.074;2023-06-10T08:34:36;19.00;99.90
21508;DHT22;10915;54.352;9.074;2023-06-10T08:37:08;18.90;99.90
21508;DHT22;10915;54.352;9.074;2023-06-10T08:39:33;18.80;99.90
21508;DHT22;10915;54.352;9.074;2023-06-10T08:44:31;18.80;99.90
21508;DHT22;10915;54.352;9.074;2023-06-10T08:47:20;19.00;99.90
21508;DHT22;10915;54.352;9.074;2023-06-10T08:49:47;19.00;99.90
21508;DHT22;10915;54.352;9.074;2023-06-10T08:52:20;18.90;99.90
21508;DHT22;10915;54.352;9.074;2023-06-10T08:55:11;18.90;99.90
21508;DHT22;10915;54.352;9.074;2023-06-10T08:57:37;18.80;99.90
21508;DHT22;10915;54.352;9.074;2023-06-10T09:00:03;18.80;99.90
21508;DHT22;10915;54.352;9.074;2023-06-10T09:02:31;19.00;99.90
21508;DHT22;10915;54.352;9.074;2023-06-10T09:05:00;19.10;99.90
21508;DHT22;10915;54.352;9.074;2023-06-10T09:07:27;19.10;99.90
21508;DHT22;10915;54.352;9.074;2023-06-10T09:09:56;19.10;99.90
21508;DHT22;10915;54.352;9.074;2023-06-10T09:12:23;19.10;99.90
21508;DHT22;10915;54.352;9.074;2023-06-10T09:14:48;19.00;99.90
21508;DHT22;10915;54.352;9.074;2023-06-10T09:17:16;19.00;99.90
21508;DHT22;10915;54.352;9.074;2023-06-10T09:19:42;19.20;99.90
21508;DHT22;10915;54.352;9.074;2023-06-10T09:22:09;19.10;99.90
21508;DHT22;10915;54.352;9.074;2023-06-10T09:24:35;19.20;99.90
21508;DHT22;10915;54.352;9.074;2023-06-10T09:27:09;19.20;99.90
21508;DHT22;10915;54.352;9.074;2023-06-10T09:32:18;19.70;99.90
21508;DHT22;10915;54.352;9.074;2023-06-10T09:34:44;19.80;99.90
21508;DHT22;10915;54.352;9.074;2023-06-10T09:37:09;19.90;99.90
21508;DHT22;10915;54.352;9.074;2023-06-10T09:39:38;19.70;99.90
21508;DHT22;10915;54.352;9.074;2023-06-10T09:42:24;19.50;99.90
21508;DHT22;10915;54.352;9.074;2023-06-10T09:44:52;19.60;99.90
21508;DHT22;10915;54.352;9.074;2023-06-10T09:47:22;19.50;99.90
21508;DHT22;10915;54.352;9.074;2023-06-10T09:49:51;19.60;99.90
21508;DHT22;10915;54.352;9.074;2023-06-10T09:52:26;19.70;99.90
21508;DHT22;10915;54.352;9.074;2023-06-10T09:54:53;19.80;99.90
21508;DHT22;10915;54.352;9.074;2023-06-10T09:57:22;20.10;99.90
21508;DHT22;10915;54.352;9.074;2023-06-10T09:59:48;20.50;99.90
21508;DHT22;10915;54.352;9.074;2023-06-10T10:02:19;20.70;99.90
21508;DHT22;10915;54.352;9.074;2023-06-10T10:04:45;20.70;99.90
21508;DHT22;10915;54.352;9.074;2023-06-10T10:07:11;20.80;99.90
21508;DHT22;10915;54.352;9.074;2023-06-10T10:09:38;20.80;99.90
21508;DHT22;10915;54.352;9.074;2023-06-10T10:14:34;20.70;99.90
21508;DHT22;10915;54.352;9.074;2023-06-10T10:17:01;20.70;99.90
21508;DHT22;10915;54.352;9.074;2023-06-10T10:19:31;20.70;99.90
21508;DHT22;10915;54.352;9.074;2023-06-10T10:22:14;20.80;99.90
21508;DHT22;10915;54.352;9.074;2023-06-10T10:24:49;20.90;99.90
21508;DHT22;10915;54.352;9.074;2023-06-10T10:30:10;21.00;99.90
21508;DHT22;10915;54.352;9.074;2023-06-10T10:35:23;21.10;99.90
21508;DHT22;10915;54.352;9.074;2023-06-10T10:37:54;21.00;99.90
21508;DHT22;10915;54.352;9.074;2023-06-10T10:40:24;21.00;99.90
21508;DHT22;10915;54.352;9.074;2023-06-10T10:42:51;21.20;99.90
21508;DHT22;10915;54.352;9.074;2023-06-10T10:45:17;21.20;99.90
21508;DHT22;10915;54.352;9.074;2023-06-10T10:47:45;21.20;99.90
21508;DHT22;10915;54.352;9.074;2023-06-10T10:50:46;21.30;99.90
21508;DHT22;10915;54.352;9.074;2023-06-10T10:53:24;21.50;99.90
21508;DHT22;10915;54.352;9.074;2023-06-10T10:56:09;21.50;99.90
21508;DHT22;10915;54.352;9.074;2023-06-10T10:58:37;21.50;99.90
21508;DHT22;10915;54.352;9.074;2023-06-10T11:01:14;21.50;99.90
21508;DHT22;10915;54.352;9.074;2023-06-10T11:03:46;21.50;99.90
21508;DHT22;10915;54.352;9.074;2023-06-10T11:06:16;21.50;99.90
21508;DHT22;10915;54.352;9.074;2023-06-10T11:11:21;21.60;99.90
21508;DHT22;10915;54.352;9.074;2023-06-10T11:14:17;21.60;99.90
21508;DHT22;10915;54.352;9.074;2023-06-10T11:16:56;21.60;99.90
21508;DHT22;10915;54.352;9.074;2023-06-10T11:19:33;21.70;99.90
21508;DHT22;10915;54.352;9.074;2023-06-10T11:22:03;21.60;99.90
21508;DHT22;10915;54.352;9.074;2023-06-10T11:24:31;21.60;99.90
21508;DHT22;10915;54.352;9.074;2023-06-10T11:27:19;21.50;99.90
21508;DHT22;10915;54.352;9.074;2023-06-10T11:32:33;21.80;99.90
21508;DHT22;10915;54.352;9.074;2023-06-10T11:35:00;21.70;99.90
21508;DHT22;10915;54.352;9.074;2023-06-10T11:37:28;21.70;99.90
21508;DHT22;10915;54.352;9.074;2023-06-10T11:39:57;21.70;99.90
21508;DHT22;10915;54.352;9.074;2023-06-10T11:42:23;21.70;99.90
21508;DHT22;10915;54.352;9.074;2023-06-10T11:44:53;21.70;99.90
21508;DHT22;10915;54.352;9.074;2023-06-10T11:47:19;21.70;99.90
21508;DHT22;10915;54.352;9.074;2023-06-10T11:49:46;21.80;99.90
21508;DHT22;10915;54.352;9.074;2023-06-10T11:52:26;21.80;99.90
21508;DHT22;10915;54.352;9.074;2023-06-10T11:54:56;21.90;99.90
21508;DHT22;10915;54.352;9.074;2023-06-10T11:57:21;21.90;99.90
21508;DHT22;10915;54.352;9.074;2023-06-10T11:59:47;21.90;99.90
21508;DHT22;10915;54.352;9.074;2023-06-10T12:02:17;21.90;99.90
21508;DHT22;10915;54.352;9.074;2023-06-10T12:04:42;21.90;99.90
21508;DHT22;10915;54.352;9.074;2023-06-10T12:07:08;22.00;99.90
21508;DHT22;10915;54.352;9.074;2023-06-10T12:09:34;21.90;99.90
21508;DHT22;10915;54.352;9.074;2023-06-10T12:17:20;21.80;99.90
21508;DHT22;10915;54.352;9.074;2023-06-10T12:19:50;21.70;99.90
21508;DHT22;10915;54.352;9.074;2023-06-10T12:22:16;21.70;99.90
21508;DHT22;10915;54.352;9.074;2023-06-10T12:25:02;21.80;99.90
21508;DHT22;10915;54.352;9.074;2023-06-10T12:27:32;21.80;99.90
21508;DHT22;10915;54.352;9.074;2023-06-10T12:29:59;22.00;99.90
21508;DHT22;10915;54.352;9.074;2023-06-10T12:32:41;22.10;99.90
21508;DHT22;10915;54.352;9.074;2023-06-10T12:35:12;22.00;99.90
21508;DHT22;10915;54.352;9.074;2023-06-10T12:37:42;21.90;99.90
21508;DHT22;10915;54.352;9.074;2023-06-10T12:40:08;21.90;99.90
21508;DHT22;10915;54.352;9.074;2023-06-10T12:42:38;22.00;99.90
21508;DHT22;10915;54.352;9.074;2023-06-10T12:45:06;22.10;99.90
21508;DHT22;10915;54.352;9.074;2023-06-10T12:47:36;22.10;99.90
21508;DHT22;10915;54.352;9.074;2023-06-10T12:50:09;22.00;99.90
21508;DHT22;10915;54.352;9.074;2023-06-10T12:52:37;22.00;99.90
21508;DHT22;10915;54.352;9.074;2023-06-10T12:55:03;22.00;99.90
21508;DHT22;10915;54.352;9.074;2023-06-10T12:57:29;22.10;99.90
21508;DHT22;10915;54.352;9.074;2023-06-10T12:59:55;22.10;99.90
21508;DHT22;10915;54.352;9.074;2023-06-10T13:02:25;22.20;99.90
21508;DHT22;10915;54.352;9.074;2023-06-10T13:04:51;22.20;99.90
21508;DHT22;10915;54.352;9.074;2023-06-10T13:07:17;22.20;99.90
21508;DHT22;10915;54.352;9.074;2023-06-10T13:09:43;22.20;99.90
21508;DHT22;10915;54.352;9.074;2023-06-10T13:12:10;22.20;99.90
21508;DHT22;10915;54.352;9.074;2023-06-10T13:14:37;22.30;99.90
21508;DHT22;10915;54.352;9.074;2023-06-10T13:17:06;22.50;99.90
21508;DHT22;10915;54.352;9.074;2023-06-10T13:19:33;22.50;99.90
21508;DHT22;10915;54.352;9.074;2023-06-10T13:21:58;22.70;99.90
21508;DHT22;10915;54.352;9.074;2023-06-10T13:24:24;22.60;99.90
21508;DHT22;10915;54.352;9.074;2023-06-10T13:26:50;22.40;99.90
21508;DHT22;10915;54.352;9.074;2023-06-10T13:29:15;22.30;99.90
21508;DHT22;10915;54.352;9.074;2023-06-10T13:31:41;22.40;99.90
21508;DHT22;10915;54.352;9.074;2023-06-10T13:34:07;22.30;99.90
21508;DHT22;10915;54.352;9.074;2023-06-10T13:36:33;22.50;99.90
21508;DHT22;10915;54.352;9.074;2023-06-10T13:38:59;22.30;99.90
21508;DHT22;10915;54.352;9.074;2023-06-10T13:41:25;22.40;99.90
21508;DHT22;10915;54.352;9.074;2023-06-10T13:43:52;22.40;99.90
21508;DHT22;10915;54.352;9.074;2023-06-10T13:46:18;22.40;99.90
21508;DHT22;10915;54.352;9.074;2023-06-10T13:48:44;22.50;99.90
21508;DHT22;10915;54.352;9.074;2023-06-10T13:51:10;22.50;99.90
21508;DHT22;10915;54.352;9.074;2023-06-10T13:53:36;22.50;99.90
21508;DHT22;10915;54.352;9.074;2023-06-10T13:56:02;22.50;99.90
21508;DHT22;10915;54.352;9.074;2023-06-10T13:58:28;22.50;99.90
21508;DHT22;10915;54.352;9.074;2023-06-10T14:00:53;22.50;99.90
21508;DHT22;10915;54.352;9.074;2023-06-10T14:03:19;22.50;99.90
21508;DHT22;10915;54.352;9.074;2023-06-10T14:05:44;22.50;99.90
21508;DHT22;10915;54.352;9.074;2023-06-10T14:08:11;22.50;99.90
21508;DHT22;10915;54.352;9.074;2023-06-10T14:10:37;22.50;99.90
21508;DHT22;10915;54.352;9.074;2023-06-10T14:13:02;22.30;99.90
21508;DHT22;10915;54.352;9.074;2023-06-10T14:15:28;22.30;99.90
21508;DHT22;10915;54.352;9.074;2023-06-10T14:17:53;22.50;99.90
21508;DHT22;10915;54.352;9.074;2023-06-10T14:20:19;22.50;99.90
21508;DHT22;10915;54.352;9.074;2023-06-10T14:22:45;22.40;99.90
21508;DHT22;10915;54.352;9.074;2023-06-10T14:25:10;22.50;99.90
21508;DHT22;10915;54.352;9.074;2023-06-10T14:27:37;22.50;99.90
21508;DHT22;10915;54.352;9.074;2023-06-10T14:30:02;22.40;99.90
21508;DHT22;10915;54.352;9.074;2023-06-10T14:32:29;22.50;99.90
21508;DHT22;10915;54.352;9.074;2023-06-10T14:34:54;22.40;99.90
21508;DHT22;10915;54.352;9.074;2023-06-10T14:37:20;22.60;99.90
21508;DHT22;10915;54.352;9.074;2023-06-10T14:39:46;22.70;99.90
21508;DHT22;10915;54.352;9.074;2023-06-10T14:42:11;22.70;99.90
21508;DHT22;10915;54.352;9.074;2023-06-10T14:44:37;22.70;99.90
21508;DHT22;10915;54.352;9.074;2023-06-10T14:47:03;22.70;99.90
21508;DHT22;10915;54.352;9.074;2023-06-10T14:49:31;22.70;99.90
21508;DHT22;10915;54.352;9.074;2023-06-10T14:51:56;22.70;99.90
21508;DHT22;10915;54.352;9.074;2023-06-10T14:54:22;22.60;99.90
21508;DHT22;10915;54.352;9.074;2023-06-10T14:56:47;22.50;99.90
21508;DHT22;10915;54.352;9.074;2023-06-10T14:59:13;22.30;99.90
21508;DHT22;10915;54.352;9.074;2023-06-10T15:01:39;22.30;99.90
21508;DHT22;10915;54.352;9.074;2023-06-10T15:04:04;22.10;99.90
21508;DHT22;10915;54.352;9.074;2023-06-10T15:06:30;22.20;99.90
21508;DHT22;10915;54.352;9.074;2023-06-10T15:08:55;22.10;99.90
21508;DHT22;10915;54.352;9.074;2023-06-10T15:11:21;22.10;99.90
21508;DHT22;10915;54.352;9.074;2023-06-10T15:13:47;22.10;99.90
21508;DHT22;10915;54.352;9.074;2023-06-10T15:16:12;22.20;99.90
21508;DHT22;10915;54.352;9.074;2023-06-10T15:18:40;22.00;99.90
21508;DHT22;10915;54.352;9.074;2023-06-10T15:21:05;22.00;99.90
21508;DHT22;10915;54.352;9.074;2023-06-10T15:23:31;22.00;99.90
21508;DHT22;10915;54.352;9.074;2023-06-10T15:25:57;22.00;99.90
21508;DHT22;10915;54.352;9.074;2023-06-10T15:28:23;22.10;99.90
21508;DHT22;10915;54.352;9.074;2023-06-10T15:30:48;22.00;99.90
21508;DHT22;10915;54.352;9.074;2023-06-10T15:33:14;22.00;99.90
21508;DHT22;10915;54.352;9.074;2023-06-10T15:35:40;22.00;99.90
21508;DHT22;10915;54.352;9.074;2023-06-10T15:38:05;22.10;99.90
21508;DHT22;10915;54.352;9.074;2023-06-10T15:40:31;22.00;99.90
21508;DHT22;10915;54.352;9.074;2023-06-10T15:42:59;22.20;99.90
21508;DHT22;10915;54.352;9.074;2023-06-10T15:45:25;22.00;99.90
21508;DHT22;10915;54.352;9.074;2023-06-10T15:47:51;22.00;99.90
21508;DHT22;10915;54.352;9.074;2023-06-10T15:50:17;22.00;99.90
21508;DHT22;10915;54.352;9.074;2023-06-10T15:52:43;21.90;99.90
21508;DHT22;10915;54.352;9.074;2023-06-10T15:55:08;21.80;99.90
21508;DHT22;10915;54.352;9.074;2023-06-10T15:57:34;21.70;99.90
21508;DHT22;10915;54.352;9.074;2023-06-10T16:00:00;21.70;99.90
21508;DHT22;10915;54.352;9.074;2023-06-10T16:02:25;21.60;99.90
21508;DHT22;10915;54.352;9.074;2023-06-10T16:04:51;21.70;99.90
21508;DHT22;10915;54.352;9.074;2023-06-10T16:07:16;21.70;99.90
21508;DHT22;10915;54.352;9.074;2023-06-10T16:09:42;21.70;99.90
21508;DHT22;10915;54.352;9.074;2023-06-10T16:12:08;21.60;99.90
21508;DHT22;10915;54.352;9.074;2023-06-10T16:14:33;21.70;99.90
21508;DHT22;10915;54.352;9.074;2023-06-10T16:16:59;21.60;99.90
21508;DHT22;10915;54.352;9.074;2023-06-10T16:19:26;21.70;99.90
21508;DHT22;10915;54.352;9.074;2023-06-10T16:21:51;21.60;99.90